Airfield :







YOU CAN JOIN US ON...

 
LOGIN :

Register | Disclaimer

   EN    FR    IT 

 









Legend :    VFR   Marginal VFR   IFR   Intensive IFR   Very Intensive IFR
Visi :
Ceiling :
>= 8 km
>= 3000ft
5 to 8 km
1000 to 3000 ft
1500m to 5 km
500 to 1000 ft
800 to 1500m
200 to 500 ft
< 800m
< 200 ft
Symbols :   Thunderstorms  Fog  Heavy snow  Heavy precipitations  Wind > 20 kt






- Airport Elevation : 1442 ft
- IATA code : ZUM


CZUM - Churchill Falls

CURRENT METAR :
  • 210500Z AUTO 12003KT 9SM OVC016 M04/M07 A3006 RMK SLP211

EXPIRED METARs :
  • 210400Z AUTO 14004KT 9SM OVC018 M04/M07 A3007 RMK SLP215
  • 210300Z AUTO 11003KT 9SM OVC020 M04/M07 A3008 RMK SLP219

TAF TAF CZUM
Valid from the 21 at 02:00 until the 21 at 14:00 UTC


210138Z 2102/2114 VRB03KT P6SM OVC020
TEMPO 2102/2114 4SM -SN OVC008
PROB30 2102/2114 2SM -FZDZ BR OVC007 RMK FCST BASED ON AUTO OBS. NXT FCST BY 210800Z



MET'MAP, your aeronautical weather chart ! - Copyright ORBIFLY December 2007 - Disclaimer

ORBIFLY MET'MAP TEAM :

Programming & Development : Alexandra Zaïnal
Concept & Development : Baudouin d'Aumeries
Co-Development & Prog : Marc-Olivier Méhu
Technical & hardware support : Manuel Goepfert

Contact : metmap@orbifly.com




SOURCES & CREDITS :

   NOAA